createdAt,value
2018-06-12T00:01:03.577Z,100609.38
2018-06-12T00:03:32.875Z,100610.19
2018-06-12T00:06:03.393Z,100610.33
2018-06-12T00:08:34.670Z,100606.14
2018-06-12T00:11:04.463Z,100619.98
2018-06-12T00:13:34.719Z,100615.12
2018-06-12T00:16:04.422Z,100613.89
2018-06-12T00:18:36.117Z,100613.09
2018-06-12T00:21:06.000Z,100617.75
2018-06-12T00:23:36.350Z,100614.27
2018-06-12T00:26:07.008Z,100619.19
2018-06-12T00:28:36.524Z,100618.78
2018-06-12T00:31:06.374Z,100623.23
2018-06-12T00:33:35.995Z,100618.66
2018-06-12T00:36:05.716Z,100618.95
2018-06-12T00:38:35.372Z,100632.36
2018-06-12T00:41:05.105Z,100634.42
2018-06-12T00:43:35.647Z,100635.75
2018-06-12T00:46:05.331Z,100628.18
2018-06-12T00:48:35.109Z,100623.37
2018-06-12T00:51:04.473Z,100628.80
2018-06-12T00:53:34.220Z,100622.14
2018-06-12T00:56:05.253Z,100623.34
2018-06-12T00:58:35.227Z,100622.23
2018-06-12T01:01:05.049Z,100634.01
2018-06-12T01:03:35.475Z,100637.88
2018-06-12T01:06:05.331Z,100626.30
2018-06-12T01:08:34.968Z,100633.67
2018-06-12T01:11:06.142Z,100641.30
2018-06-12T01:13:35.814Z,100648.66
2018-06-12T01:16:06.335Z,100644.78
2018-06-12T01:18:36.195Z,100647.97
2018-06-12T01:21:06.756Z,100641.95
2018-06-12T01:23:36.405Z,100640.66
2018-06-12T01:26:06.103Z,100638.91
2018-06-12T01:28:37.271Z,100643.67
2018-06-12T01:31:06.958Z,100641.00
2018-06-12T01:33:36.608Z,100641.39
2018-06-12T01:36:06.290Z,100640.97
2018-06-12T01:38:37.260Z,100638.44
2018-06-12T01:41:07.057Z,100641.99
2018-06-12T01:43:37.607Z,100647.37
2018-06-12T01:46:08.522Z,100644.86
2018-06-12T01:48:39.520Z,100648.25
2018-06-12T01:51:09.219Z,100642.53
2018-06-12T01:53:39.662Z,100641.14
2018-06-12T01:56:09.300Z,100638.75
2018-06-12T01:58:39.494Z,100644.37
2018-06-12T02:01:10.124Z,100640.31
2018-06-12T02:03:40.976Z,100638.57
2018-06-12T02:06:15.331Z,100642.52
2018-06-12T02:09:07.092Z,100639.05
2018-06-12T02:17:09.376Z,100635.29
2018-06-12T02:19:39.629Z,100631.74
2018-06-12T02:22:10.118Z,100630.05
2018-06-12T02:24:40.385Z,100621.25
2018-06-12T02:27:10.095Z,100631.61
2018-06-12T02:29:39.953Z,100631.80
2018-06-12T02:32:09.597Z,100631.46
2018-06-12T02:34:40.189Z,100635.80
2018-06-12T02:37:11.624Z,100638.62
2018-06-12T02:39:42.286Z,100642.23
2018-06-12T02:42:12.804Z,100646.26
2018-06-12T02:44:42.669Z,100645.55
2018-06-12T02:47:12.785Z,100642.33
2018-06-12T02:49:42.529Z,100639.08
2018-06-12T02:52:14.001Z,100637.16
2018-06-12T02:54:43.705Z,100644.50
2018-06-12T02:57:13.439Z,100647.17
2018-06-12T02:59:44.237Z,100644.41
2018-06-12T03:02:15.933Z,100644.03
2018-06-12T03:04:45.646Z,100644.84
2018-06-12T03:07:15.483Z,100646.63
2018-06-12T03:09:45.193Z,100645.41
2018-06-12T03:12:14.840Z,100643.70
2018-06-12T03:14:46.259Z,100645.00
2018-06-12T03:17:19.134Z,100639.52
2018-06-12T03:19:49.767Z,100655.20
2018-06-12T03:22:20.513Z,100647.36
2018-06-12T03:24:54.324Z,100652.14
2018-06-12T03:27:24.557Z,100652.92
2018-06-12T03:29:54.324Z,100657.77
2018-06-12T03:32:24.198Z,100655.44
2018-06-12T03:34:54.741Z,100658.91
2018-06-12T03:37:33.406Z,100650.80
2018-06-12T03:40:06.577Z,100646.55
2018-06-12T03:42:37.015Z,100645.70
2018-06-12T03:45:07.632Z,100650.98
2018-06-12T03:47:38.337Z,100644.75
2018-06-12T03:50:07.979Z,100655.35
2018-06-12T03:52:37.745Z,100659.21
2018-06-12T03:55:07.769Z,100656.97
2018-06-12T03:57:38.377Z,100652.48
2018-06-12T04:00:09.195Z,100660.77
2018-06-12T04:02:39.751Z,100665.34
2018-06-12T04:05:09.335Z,100655.65
2018-06-12T04:07:39.104Z,100656.71
2018-06-12T04:10:08.727Z,100654.12
2018-06-12T04:12:38.458Z,100658.95
2018-06-12T04:15:08.285Z,100655.26
2018-06-12T04:17:38.108Z,100659.84
2018-06-12T04:20:08.938Z,100662.05
2018-06-12T04:22:38.787Z,100651.98
2018-06-12T04:25:08.554Z,100643.59
2018-06-12T04:27:38.259Z,100636.69
2018-06-12T04:30:07.926Z,100641.61
2018-06-12T04:32:37.629Z,100640.13
2018-06-12T04:35:07.536Z,100641.42
2018-06-12T04:37:37.168Z,100633.81
2018-06-12T04:40:06.876Z,100642.62
2018-06-12T04:42:37.503Z,100640.41
2018-06-12T04:45:07.243Z,100647.33
2018-06-12T04:47:36.904Z,100639.81
2018-06-12T04:50:06.703Z,100639.69
2018-06-12T04:52:36.977Z,100639.25
2018-06-12T04:55:06.668Z,100638.14
2018-06-12T04:57:36.272Z,100641.89
2018-06-12T05:00:06.029Z,100638.68
2018-06-12T05:02:35.672Z,100636.50
2018-06-12T05:05:05.418Z,100636.70
2018-06-12T05:07:35.268Z,100637.81
2018-06-12T05:10:04.897Z,100641.32
2018-06-12T05:12:34.612Z,100636.00
2018-06-12T05:15:04.218Z,100638.82
2018-06-12T05:17:34.124Z,100642.27
2018-06-12T05:20:03.836Z,100644.86
2018-06-12T05:22:33.460Z,100645.49
2018-06-12T05:25:03.498Z,100647.64
2018-06-12T05:27:33.361Z,100656.11
2018-06-12T05:30:02.987Z,100658.61
2018-06-12T05:32:32.753Z,100660.56
2018-06-12T05:35:02.583Z,100659.77
2018-06-12T05:37:32.469Z,100654.86
2018-06-12T05:40:02.294Z,100656.39
2018-06-12T05:42:32.062Z,100668.23
2018-06-12T05:45:01.655Z,100673.73
2018-06-12T05:47:32.110Z,100670.08
2018-06-12T05:50:01.907Z,100675.52
2018-06-12T05:52:31.925Z,100666.97
2018-06-12T05:55:01.801Z,100672.27
2018-06-12T05:57:31.527Z,100680.17
2018-06-12T06:00:01.739Z,100682.95
2018-06-12T06:02:31.509Z,100684.50
2018-06-12T06:05:02.136Z,100686.38
2018-06-12T06:07:31.877Z,100684.89
2018-06-12T06:10:01.221Z,100682.19
2018-06-12T06:12:30.857Z,100685.71
2018-06-12T06:15:00.751Z,100685.58
2018-06-12T06:17:30.786Z,100691.24
2018-06-12T06:20:01.242Z,100696.26
2018-06-12T06:22:31.022Z,100690.63
2018-06-12T06:25:01.413Z,100689.98
2018-06-12T06:27:32.918Z,100692.38
2018-06-12T06:30:03.476Z,100697.09
2018-06-12T06:32:33.141Z,100702.88
2018-06-12T06:35:02.956Z,100699.05
2018-06-12T06:37:33.386Z,100698.88
2018-06-12T06:40:03.260Z,100696.00
2018-06-12T06:42:33.047Z,100691.80
2018-06-12T06:45:02.978Z,100688.05
2018-06-12T06:47:32.811Z,100691.91
2018-06-12T06:50:03.845Z,100690.05
2018-06-12T06:52:35.558Z,100685.06
2018-06-12T06:55:07.294Z,100687.89
2018-06-12T06:57:36.982Z,100689.31
2018-06-12T07:00:07.044Z,100687.79
2018-06-12T07:02:36.765Z,100688.17
2018-06-12T07:05:06.500Z,100686.46
2018-06-12T07:07:36.644Z,100680.77
2018-06-12T07:10:08.225Z,100683.13
2018-06-12T07:12:38.818Z,100676.92
2018-06-12T07:15:09.525Z,100685.47
2018-06-12T07:17:39.874Z,100687.79
2018-06-12T07:20:09.695Z,100672.95
2018-06-12T07:22:40.550Z,100666.55
2018-06-12T07:25:12.153Z,100675.34
2018-06-12T07:27:41.968Z,100677.08
2018-06-12T07:30:12.650Z,100683.12
2018-06-12T07:32:42.344Z,100681.28
2018-06-12T07:35:12.105Z,100687.30
2018-06-12T07:37:41.903Z,100687.55
2018-06-12T07:40:11.625Z,100683.61
2018-06-12T07:42:41.550Z,100687.09
2018-06-12T07:45:12.289Z,100689.70
2018-06-12T07:47:43.672Z,100688.27
2018-06-12T07:50:13.638Z,100677.56
2018-06-12T07:52:44.245Z,100684.40
2018-06-12T07:55:15.056Z,100678.00
2018-06-12T07:57:44.862Z,100682.25
2018-06-12T08:00:14.629Z,100690.81
2018-06-12T08:02:45.122Z,100685.80
2018-06-12T08:05:17.348Z,100690.04
2018-06-12T08:07:46.922Z,100688.43
2018-06-12T08:10:16.697Z,100696.44
2018-06-12T08:12:46.519Z,100682.28
2018-06-12T08:15:16.184Z,100685.50
2018-06-12T08:17:46.107Z,100676.48
2018-06-12T08:20:18.230Z,100680.42
2018-06-12T08:22:48.415Z,100686.08
2018-06-12T08:25:18.252Z,100682.50
2018-06-12T08:27:48.724Z,100689.47
2018-06-12T08:30:18.709Z,100694.72
2018-06-12T08:32:48.920Z,100695.58
2018-06-12T08:35:18.805Z,100688.07
2018-06-12T08:37:48.877Z,100688.07
2018-06-12T08:40:19.915Z,100685.70
2018-06-12T08:42:50.283Z,100689.38
2018-06-12T08:45:21.586Z,100694.60
2018-06-12T08:47:52.460Z,100690.38
2018-06-12T08:50:22.163Z,100688.92
2018-06-12T08:52:52.628Z,100686.23
2018-06-12T08:55:22.356Z,100679.57
2018-06-12T08:57:52.637Z,100674.38
2018-06-12T09:00:26.077Z,100672.36
2018-06-12T09:02:56.180Z,100671.28
2018-06-12T09:05:26.423Z,100677.91
2018-06-12T09:07:57.424Z,100674.52
2018-06-12T09:10:28.487Z,100681.02
2018-06-12T09:12:58.757Z,100678.16
2018-06-12T09:15:28.533Z,100672.75
2018-06-12T09:17:58.530Z,100669.77
2018-06-12T09:20:28.308Z,100663.45
2018-06-12T09:22:58.145Z,100670.25
2018-06-12T09:25:28.853Z,100665.50
2018-06-12T09:27:59.626Z,100672.70
2018-06-12T09:30:29.391Z,100675.31
2018-06-12T09:32:59.050Z,100670.93
2018-06-12T09:35:29.296Z,100666.39
2018-06-12T09:37:59.136Z,100668.36
2018-06-12T09:40:29.107Z,100667.63
2018-06-12T09:42:59.371Z,100672.78
2018-06-12T09:45:29.147Z,100679.66
2018-06-12T09:47:58.937Z,100671.73
2018-06-12T09:50:28.707Z,100683.16
2018-06-12T09:52:59.253Z,100683.88
2018-06-12T09:55:29.098Z,100690.41
2018-06-12T09:57:59.007Z,100689.45
2018-06-12T10:00:34.588Z,100691.69
2018-06-12T10:03:04.661Z,100686.97
2018-06-12T10:05:35.623Z,100687.92
2018-06-12T10:08:06.949Z,100696.77
2018-06-12T10:10:36.653Z,100691.60
2018-06-12T10:13:07.139Z,100693.40
2018-06-12T10:15:38.484Z,100700.39
2018-06-12T10:18:08.188Z,100690.24
2018-06-12T10:20:37.970Z,100690.56
2018-06-12T10:23:08.330Z,100685.09
2018-06-12T10:25:39.978Z,100688.71
2018-06-12T10:28:10.135Z,100691.92
2018-06-12T10:30:40.012Z,100690.70
2018-06-12T10:33:10.568Z,100693.23
2018-06-12T10:35:40.357Z,100687.66
2018-06-12T10:38:10.076Z,100686.05
2018-06-12T10:40:40.490Z,100696.12
2018-06-12T10:43:10.398Z,100692.77
2018-06-12T10:45:40.202Z,100689.72
2018-06-12T10:48:10.580Z,100682.59
2018-06-12T10:50:40.279Z,100684.97
2018-06-12T10:53:10.294Z,100692.26
2018-06-12T10:55:41.284Z,100687.50
2018-06-12T10:58:11.108Z,100684.79
2018-06-12T11:00:40.821Z,100689.31
2018-06-12T11:03:13.867Z,100693.92
2018-06-12T11:05:43.712Z,100691.20
2018-06-12T11:08:14.299Z,100688.99
2018-06-12T11:10:44.174Z,100688.80
2018-06-12T11:13:14.237Z,100686.34
2018-06-12T11:15:45.554Z,100691.40
2018-06-12T11:18:15.743Z,100689.70
2018-06-12T11:20:45.490Z,100696.50
2018-06-12T11:23:15.337Z,100690.55
2018-06-12T11:25:45.120Z,100696.88
2018-06-12T11:28:16.656Z,100705.25
2018-06-12T11:30:46.584Z,100696.90
2018-06-12T11:33:21.020Z,100700.02
2018-06-12T11:35:51.097Z,100701.09
2018-06-12T11:38:21.242Z,100694.41
2018-06-12T11:40:51.113Z,100692.66
2018-06-12T11:43:20.985Z,100688.04
2018-06-12T11:45:50.799Z,100690.48
2018-06-12T11:48:20.625Z,100686.68
2018-06-12T11:50:50.312Z,100687.83
2018-06-12T11:53:21.188Z,100682.95
2018-06-12T11:55:51.242Z,100686.97
2018-06-12T11:58:20.944Z,100682.73
2018-06-12T12:00:52.259Z,100680.98
2018-06-12T12:03:22.034Z,100688.39
2018-06-12T12:05:51.893Z,100691.42
2018-06-12T12:08:21.678Z,100690.31
2018-06-12T12:10:51.853Z,100698.83
2018-06-12T12:13:23.332Z,100697.68
2018-06-12T12:15:53.055Z,100691.66
2018-06-12T12:18:22.807Z,100683.98
2018-06-12T12:20:52.878Z,100690.77
2018-06-12T12:23:23.077Z,100684.55
2018-06-12T12:25:52.852Z,100686.53
2018-06-12T12:28:22.706Z,100685.84
2018-06-12T12:30:52.766Z,100683.33
2018-06-12T12:33:23.109Z,100681.44
2018-06-12T12:35:52.769Z,100685.36
2018-06-12T12:38:22.635Z,100686.66
2018-06-12T12:40:52.444Z,100681.23
2018-06-12T12:43:22.906Z,100677.73
2018-06-12T12:45:53.211Z,100682.46
2018-06-12T12:48:23.004Z,100672.81
2018-06-12T12:50:52.726Z,100672.61
2018-06-12T12:53:23.009Z,100675.00
2018-06-12T12:55:52.786Z,100675.52
2018-06-12T12:58:22.577Z,100673.74
2018-06-12T13:00:52.294Z,100664.52
2018-06-12T13:03:22.093Z,100666.77
2018-06-12T13:05:52.425Z,100667.22
2018-06-12T13:08:22.207Z,100668.70
2018-06-12T13:10:51.908Z,100662.31
2018-06-12T13:13:22.457Z,100670.30
2018-06-12T13:15:54.059Z,100662.67
2018-06-12T13:18:26.309Z,100667.04
2018-06-12T13:20:56.958Z,100669.38
2018-06-12T13:23:29.073Z,100663.87
2018-06-12T13:26:03.595Z,100654.36
2018-06-12T13:28:36.227Z,100650.81
2018-06-12T13:31:08.203Z,100657.63
2018-06-12T13:33:39.794Z,100658.22
2018-06-12T13:36:13.407Z,100658.19
2018-06-12T13:38:46.779Z,100652.53
2018-06-12T13:41:18.625Z,100656.78
2018-06-12T13:43:55.430Z,100652.11
2018-06-12T13:46:25.477Z,100651.44
2018-06-12T13:48:55.367Z,100649.36
2018-06-12T13:51:25.478Z,100653.86
2018-06-12T13:53:56.076Z,100654.77
2018-06-12T13:56:25.789Z,100649.36
2018-06-12T13:58:55.964Z,100632.45
2018-06-12T14:01:25.655Z,100636.94
2018-06-12T14:03:57.107Z,100638.77
2018-06-12T14:06:31.216Z,100630.09
2018-06-12T14:09:05.956Z,100633.75
2018-06-12T14:11:36.384Z,100634.59
2018-06-12T14:14:07.484Z,100637.17
2018-06-12T14:16:37.281Z,100633.08
2018-06-12T14:19:08.491Z,100640.31
2018-06-12T14:21:38.772Z,100639.83
2018-06-12T14:24:08.436Z,100640.87
2018-06-12T14:26:38.077Z,100640.95
2018-06-12T14:29:08.487Z,100633.36
2018-06-12T14:31:38.204Z,100637.50
2018-06-12T14:34:07.615Z,100637.77
2018-06-12T14:36:37.263Z,100636.72
2018-06-12T14:39:10.704Z,100634.69
2018-06-12T14:41:41.590Z,100625.48
2018-06-12T14:44:12.239Z,100638.08
2018-06-12T14:46:42.035Z,100639.64
2018-06-12T14:49:12.806Z,100632.66
2018-06-12T14:51:42.941Z,100630.44
2018-06-12T14:54:13.017Z,100626.98
2018-06-12T14:56:42.818Z,100632.84
2018-06-12T14:59:12.677Z,100625.12
2018-06-12T15:01:43.486Z,100630.03
2018-06-12T15:04:13.791Z,100625.39
2018-06-12T15:06:43.497Z,100626.26
2018-06-12T15:09:14.037Z,100623.87
2018-06-12T15:11:43.782Z,100628.87
2018-06-12T15:14:13.525Z,100622.11
2018-06-12T15:16:43.323Z,100620.59
2018-06-12T15:19:14.066Z,100614.73
2018-06-12T15:21:44.699Z,100623.15
2018-06-12T15:24:14.608Z,100619.16
2018-06-12T15:26:44.729Z,100621.62
2018-06-12T15:29:14.456Z,100616.41
2018-06-12T15:31:44.246Z,100620.90
2018-06-12T15:34:14.597Z,100614.56
2018-06-12T15:36:44.192Z,100612.22
2018-06-12T15:39:15.648Z,100615.09
2018-06-12T15:41:45.502Z,100612.84
2018-06-12T15:44:16.360Z,100622.44
2018-06-12T15:46:46.172Z,100623.52
2018-06-12T15:49:17.703Z,100607.56
2018-06-12T15:51:47.544Z,100611.80
2018-06-12T15:54:17.906Z,100609.31
2018-06-12T15:56:49.170Z,100613.55
2018-06-12T15:59:19.875Z,100612.77
2018-06-12T16:01:50.877Z,100609.13
2018-06-12T16:04:20.675Z,100607.60
2018-06-12T16:06:50.943Z,100613.06
2018-06-12T16:09:21.535Z,100607.45
2018-06-12T16:11:51.847Z,100603.20
2018-06-12T16:14:22.372Z,100600.79
2018-06-12T16:16:53.918Z,100594.88
2018-06-12T16:19:25.615Z,100597.70
2018-06-12T16:21:55.964Z,100595.55
2018-06-12T16:24:26.763Z,100592.75
2018-06-12T16:26:59.120Z,100592.64
2018-06-12T16:29:28.978Z,100601.80
2018-06-12T16:31:59.755Z,100590.35
2018-06-12T16:34:31.104Z,100592.56
2018-06-12T16:37:02.877Z,100597.33
2018-06-12T16:39:33.600Z,100611.14
2018-06-12T16:42:04.667Z,100601.43
2018-06-12T16:44:36.883Z,100601.41
2018-06-12T16:47:12.576Z,100599.76
2018-06-12T16:49:44.474Z,100602.25
2018-06-12T16:52:15.462Z,100598.55
2018-06-12T16:54:46.099Z,100588.59
2018-06-12T16:57:17.561Z,100592.37
2018-06-12T16:59:47.978Z,100585.75
2018-06-12T17:02:19.195Z,100583.30
2018-06-12T17:04:49.022Z,100587.27
2018-06-12T17:07:22.121Z,100592.34
2018-06-12T17:09:52.435Z,100583.23
2018-06-12T17:12:22.741Z,100593.84
2018-06-12T17:14:52.463Z,100595.83
2018-06-12T17:17:23.116Z,100592.95
2018-06-12T17:19:54.091Z,100592.69
2018-06-12T17:22:24.959Z,100600.23
2018-06-12T17:24:55.852Z,100600.53
2018-06-12T17:27:26.104Z,100604.21
2018-06-12T17:29:56.094Z,100600.77
2018-06-12T17:32:25.832Z,100584.81
2018-06-12T17:34:55.648Z,100582.21
2018-06-12T17:37:25.372Z,100580.51
2018-06-12T17:39:55.308Z,100596.25
2018-06-12T17:42:26.580Z,100600.05
2018-06-12T17:44:58.072Z,100595.54
2018-06-12T17:47:27.916Z,100596.80
2018-06-12T17:49:59.245Z,100601.52
2018-06-12T17:52:29.967Z,100605.30
2018-06-12T17:55:00.356Z,100607.58
2018-06-12T17:57:31.461Z,100615.80
2018-06-12T18:00:01.717Z,100612.70
2018-06-12T18:02:33.898Z,100617.62
2018-06-12T18:05:04.279Z,100617.41
2018-06-12T18:07:34.443Z,100615.33
2018-06-12T18:10:09.426Z,100614.14
2018-06-12T18:12:41.893Z,100609.91
2018-06-12T18:15:13.002Z,100613.40
2018-06-12T18:17:43.386Z,100619.31
2018-06-12T18:20:13.228Z,100618.05
2018-06-12T18:22:44.716Z,100611.85
2018-06-12T18:25:15.609Z,100610.66
2018-06-12T18:27:45.649Z,100613.22
2018-06-12T18:30:15.959Z,100612.81
2018-06-12T18:32:46.814Z,100609.43
2018-06-12T18:35:17.995Z,100623.33
2018-06-12T18:37:50.313Z,100615.64
2018-06-12T18:40:20.607Z,100611.62
2018-06-12T18:42:50.571Z,100626.52
2018-06-12T18:45:21.610Z,100620.98
2018-06-12T18:47:51.283Z,100630.95
2018-06-12T18:50:21.951Z,100639.45
2018-06-12T18:52:56.795Z,100641.83
2018-06-12T18:55:27.992Z,100632.91
2018-06-12T18:57:58.815Z,100627.70
2018-06-12T19:00:28.877Z,100623.33
2018-06-12T19:03:00.475Z,100624.81
2018-06-12T19:05:30.498Z,100625.47
2018-06-12T19:08:01.770Z,100623.48
2018-06-12T19:10:33.113Z,100626.33
2018-06-12T19:13:03.698Z,100635.02
2018-06-12T19:15:35.178Z,100636.79
2018-06-12T19:18:06.090Z,100638.62
2018-06-12T19:20:37.544Z,100645.22
2018-06-12T19:23:07.913Z,100643.78
2018-06-12T19:25:37.913Z,100641.91
2018-06-12T19:28:07.897Z,100650.93
2018-06-12T19:30:37.978Z,100653.59
2018-06-12T19:33:07.792Z,100653.73
2018-06-12T19:35:37.450Z,100651.98
2018-06-12T19:38:08.817Z,100658.11
2018-06-12T19:40:38.610Z,100666.00
2018-06-12T19:43:08.841Z,100666.88
2018-06-12T19:45:39.518Z,100668.21
2018-06-12T19:48:10.360Z,100659.88
2018-06-12T19:50:40.352Z,100663.63
2018-06-12T19:53:11.010Z,100674.02
2018-06-12T19:55:41.268Z,100668.19
2018-06-12T19:58:11.148Z,100678.67
2018-06-12T20:00:41.687Z,100681.62
2018-06-12T20:03:11.943Z,100691.97
2018-06-12T20:05:44.012Z,100692.95
2018-06-12T20:08:14.531Z,100693.05
2018-06-12T20:10:45.510Z,100695.33
2018-06-12T20:13:15.373Z,100693.93
2018-06-12T20:15:45.078Z,100692.49
2018-06-12T20:18:14.974Z,100701.25
2018-06-12T20:20:46.327Z,100697.80
2018-06-12T20:23:16.271Z,100699.31
2018-06-12T20:25:46.251Z,100697.92
2018-06-12T20:28:16.663Z,100691.44
2018-06-12T20:30:46.465Z,100697.66
2018-06-12T20:33:16.239Z,100690.11
2018-06-12T20:35:46.089Z,100698.42
2018-06-12T20:38:16.137Z,100704.94
2018-06-12T20:40:46.407Z,100703.38
2018-06-12T20:43:16.402Z,100705.63
2018-06-12T20:45:46.628Z,100711.58
2018-06-12T20:48:18.385Z,100707.06
2018-06-12T20:50:48.183Z,100709.81
2018-06-12T20:53:18.925Z,100713.34
2018-06-12T20:55:48.735Z,100712.55
2018-06-12T20:58:18.655Z,100718.65
2018-06-12T21:00:48.792Z,100722.63
2018-06-12T21:03:18.590Z,100723.98
2018-06-12T21:05:48.307Z,100726.05
2018-06-12T21:08:18.110Z,100720.39
2018-06-12T21:10:48.233Z,100718.87
2018-06-12T21:13:18.418Z,100718.02
2018-06-12T21:15:49.165Z,100716.97
2018-06-12T21:18:18.956Z,100720.78
2018-06-12T21:20:48.772Z,100727.97
2018-06-12T21:23:18.518Z,100729.41
2018-06-12T21:25:48.309Z,100732.78
2018-06-12T21:28:18.381Z,100724.51
2018-06-12T21:30:48.815Z,100724.95
2018-06-12T21:33:19.520Z,100730.66
2018-06-12T21:35:50.072Z,100726.66
2018-06-12T21:38:19.779Z,100723.30
2018-06-12T21:40:49.507Z,100730.77
2018-06-12T21:43:19.587Z,100733.78
2018-06-12T21:45:49.909Z,100733.84
2018-06-12T21:48:20.456Z,100735.08
2018-06-12T21:50:50.184Z,100731.69
2018-06-12T21:53:20.707Z,100729.03
2018-06-12T21:55:50.546Z,100729.42
2018-06-12T21:58:20.603Z,100728.26
2018-06-12T22:00:50.514Z,100734.42
2018-06-12T22:03:20.345Z,100728.06
2018-06-12T22:05:53.421Z,100730.75
2018-06-12T22:08:24.947Z,100723.99
2018-06-12T22:12:24.095Z,100727.58
2018-06-12T22:14:53.778Z,100718.52
2018-06-12T22:17:24.403Z,100723.27
2018-06-12T22:19:54.256Z,100724.38
2018-06-12T22:22:24.936Z,100722.39
2018-06-12T22:24:54.656Z,100722.11
2018-06-12T22:27:24.263Z,100722.91
2018-06-12T22:29:54.922Z,100730.86
2018-06-12T22:32:24.601Z,100722.05
2018-06-12T22:34:55.472Z,100730.72
2018-06-12T22:37:25.164Z,100724.50
2018-06-12T22:39:56.264Z,100719.38
2018-06-12T22:42:25.850Z,100712.31
2018-06-12T22:44:55.607Z,100720.07
2018-06-12T22:47:25.309Z,100724.48
2018-06-12T22:49:54.935Z,100720.86
2018-06-12T22:52:24.541Z,100727.86
2018-06-12T22:54:54.204Z,100729.08
2018-06-12T22:57:23.859Z,100725.88
2018-06-12T22:59:53.739Z,100727.37
2018-06-12T23:02:23.385Z,100725.98
2018-06-12T23:04:53.415Z,100735.84
2018-06-12T23:07:24.021Z,100744.09
2018-06-12T23:09:53.820Z,100745.92
2018-06-12T23:12:25.674Z,100741.18
2018-06-12T23:14:56.776Z,100745.05
2018-06-12T23:17:26.621Z,100740.66
2018-06-12T23:20:13.184Z,100750.09
2018-06-12T23:22:43.494Z,100740.06
2018-06-12T23:25:13.395Z,100746.11
2018-06-12T23:27:42.782Z,100742.55
2018-06-12T23:30:13.324Z,100744.81
2018-06-12T23:32:43.010Z,100742.14
2018-06-12T23:35:12.902Z,100738.51
2018-06-12T23:37:42.754Z,100744.65
2018-06-12T23:40:12.454Z,100737.83
2018-06-12T23:42:42.835Z,100742.55
2018-06-12T23:45:12.848Z,100743.09
2018-06-12T23:47:43.052Z,100741.45
2018-06-12T23:50:13.403Z,100748.86
2018-06-12T23:52:43.860Z,100753.51
2018-06-12T23:55:13.747Z,100758.02
2018-06-12T23:57:43.732Z,100765.52
